createdAt,value
2016-11-18T00:00:12.294Z,920.74
2016-11-18T00:01:25.782Z,920.77
2016-11-18T00:02:38.787Z,920.79
2016-11-18T00:03:50.768Z,920.82
2016-11-18T00:05:03.938Z,920.83
2016-11-18T00:06:17.019Z,920.87
2016-11-18T00:07:30.716Z,920.93
2016-11-18T00:08:43.267Z,920.87
2016-11-18T00:09:55.823Z,920.87
2016-11-18T00:11:08.899Z,920.83
2016-11-18T00:12:21.434Z,920.83
2016-11-18T00:13:34.603Z,920.8
2016-11-18T00:14:47.212Z,920.81
2016-11-18T00:16:00.563Z,920.78
2016-11-18T00:17:13.589Z,920.79
2016-11-18T00:18:26.550Z,920.79
2016-11-18T00:19:38.593Z,920.78
2016-11-18T00:20:51.125Z,920.86
2016-11-18T00:22:04.276Z,920.85
2016-11-18T00:23:17.318Z,920.86
2016-11-18T00:24:30.140Z,920.89
2016-11-18T00:25:41.601Z,920.87
2016-11-18T00:26:54.084Z,920.94
2016-11-18T00:28:07.271Z,920.92
2016-11-18T00:29:19.765Z,920.96
2016-11-18T00:30:33.435Z,920.92
2016-11-18T00:31:46.519Z,920.98
2016-11-18T00:32:59.624Z,920.95
2016-11-18T00:34:12.689Z,920.94
2016-11-18T00:35:25.190Z,920.97
2016-11-18T00:36:38.186Z,920.98
2016-11-18T00:37:51.310Z,920.97
2016-11-18T00:39:04.930Z,921.01
2016-11-18T00:40:17.903Z,921.04
2016-11-18T00:41:30.387Z,921.06
2016-11-18T00:42:42.887Z,921.05
2016-11-18T00:43:55.426Z,921.12
2016-11-18T00:45:08.148Z,921.12
2016-11-18T00:46:20.657Z,921.12
2016-11-18T00:47:33.450Z,921.12
2016-11-18T00:48:46.033Z,921.11
2016-11-18T00:49:59.620Z,921.14
2016-11-18T00:51:13.125Z,921.12
2016-11-18T00:52:26.678Z,921.08
2016-11-18T00:53:39.803Z,921.12
2016-11-18T00:54:52.910Z,921.12
2016-11-18T00:56:06.466Z,921.13
2016-11-18T00:57:19.512Z,921.15
2016-11-18T00:58:32.027Z,921.13
2016-11-18T00:59:45.649Z,921.09
2016-11-18T01:00:57.608Z,921.13
2016-11-18T01:02:10.092Z,921.14
2016-11-18T01:03:23.169Z,921.12
2016-11-18T01:04:36.685Z,921.16
2016-11-18T01:05:49.779Z,921.14
2016-11-18T01:07:02.317Z,921.13
2016-11-18T01:08:14.805Z,921.15
2016-11-18T01:09:27.797Z,921.11
2016-11-18T01:10:40.799Z,921.17
2016-11-18T01:11:53.260Z,921.14
2016-11-18T01:13:06.255Z,921.16
2016-11-18T01:14:19.292Z,921.12
2016-11-18T01:15:31.837Z,921.13
2016-11-18T01:16:44.882Z,921.12
2016-11-18T01:17:57.928Z,921.12
2016-11-18T01:19:10.448Z,921.05
2016-11-18T01:20:22.868Z,921.02
2016-11-18T01:21:35.943Z,921.05
2016-11-18T01:22:48.899Z,921
2016-11-18T01:24:00.307Z,921
2016-11-18T01:25:13.837Z,921
2016-11-18T01:26:26.867Z,921.05
2016-11-18T01:27:39.842Z,921.03
2016-11-18T01:28:53.427Z,921.08
2016-11-18T01:30:06.452Z,921.07
2016-11-18T01:31:18.944Z,921.07
2016-11-18T01:32:32.545Z,921.06
2016-11-18T01:33:45.072Z,921.07
2016-11-18T01:34:58.084Z,921.04
2016-11-18T01:36:10.550Z,921.04
2016-11-18T01:37:22.977Z,921
2016-11-18T01:38:34.959Z,921.05
2016-11-18T01:39:48.413Z,921.05
2016-11-18T01:41:01.404Z,921.06
2016-11-18T01:42:14.367Z,920.99
2016-11-18T01:43:27.351Z,921.06
2016-11-18T01:44:40.911Z,921.01
2016-11-18T01:45:53.930Z,921.05
2016-11-18T01:47:07.004Z,921.04
2016-11-18T01:48:20.126Z,921.08
2016-11-18T01:49:32.655Z,921.04
2016-11-18T01:50:45.176Z,921
2016-11-18T01:51:57.643Z,921.04
2016-11-18T01:53:10.662Z,921.04
2016-11-18T01:54:23.635Z,921.04
2016-11-18T01:55:37.283Z,921.03
2016-11-18T01:56:50.839Z,921
2016-11-18T01:58:01.704Z,920.97
2016-11-18T01:59:14.183Z,920.95
2016-11-18T02:00:26.673Z,920.96
2016-11-18T02:02:11.321Z,920.93
2016-11-18T02:03:23.758Z,920.89
2016-11-18T02:04:37.322Z,920.87
2016-11-18T02:05:50.843Z,920.89
2016-11-18T02:07:03.892Z,920.88
2016-11-18T02:08:16.879Z,920.88
2016-11-18T02:09:29.317Z,920.83
2016-11-18T02:10:42.355Z,920.8
2016-11-18T02:11:55.940Z,920.81
2016-11-18T02:13:08.950Z,920.78
2016-11-18T02:14:21.973Z,920.75
2016-11-18T02:15:35.486Z,920.68
2016-11-18T02:16:48.485Z,920.71
2016-11-18T02:18:01.509Z,920.67
2016-11-18T02:19:14.037Z,920.65
2016-11-18T02:20:27.004Z,920.68
2016-11-18T02:21:39.514Z,920.64
2016-11-18T02:22:51.490Z,920.6
2016-11-18T02:24:04.552Z,920.54
2016-11-18T02:25:16.534Z,920.58
2016-11-18T02:26:28.558Z,920.57
2016-11-18T02:27:41.038Z,920.54
2016-11-18T02:28:54.591Z,920.52
2016-11-18T02:30:06.538Z,920.51
2016-11-18T02:31:17.976Z,920.45
2016-11-18T02:32:29.970Z,920.5
2016-11-18T02:33:42.446Z,920.42
2016-11-18T02:34:55.017Z,920.37
2016-11-18T02:36:08.013Z,920.36
2016-11-18T02:37:21.545Z,920.39
2016-11-18T02:38:34.547Z,920.35
2016-11-18T02:39:46.476Z,920.34
2016-11-18T02:40:58.975Z,920.31
2016-11-18T02:42:11.541Z,920.31
2016-11-18T02:43:24.004Z,920.32
2016-11-18T02:44:35.379Z,920.39
2016-11-18T02:45:48.443Z,920.36
2016-11-18T02:47:01.408Z,920.33
2016-11-18T02:48:14.995Z,920.34
2016-11-18T02:49:27.499Z,920.33
2016-11-18T02:50:38.401Z,920.37
2016-11-18T02:51:50.345Z,920.36
2016-11-18T02:53:03.392Z,920.39
2016-11-18T02:54:15.351Z,920.37
2016-11-18T02:55:27.831Z,920.37
2016-11-18T02:56:40.331Z,920.38
2016-11-18T02:57:53.422Z,920.4
2016-11-18T02:59:05.908Z,920.4
2016-11-18T03:00:18.920Z,920.38
2016-11-18T03:01:31.380Z,920.42
2016-11-18T03:02:44.966Z,920.43
2016-11-18T03:04:29.668Z,920.46
2016-11-18T03:05:41.656Z,920.49
2016-11-18T03:06:55.170Z,920.5
2016-11-18T03:08:08.671Z,920.51
2016-11-18T03:09:21.665Z,920.47
2016-11-18T03:10:35.226Z,920.49
2016-11-18T03:11:48.796Z,920.42
2016-11-18T03:13:00.742Z,920.43
2016-11-18T03:14:14.245Z,920.39
2016-11-18T03:15:26.700Z,920.42
2016-11-18T03:16:40.337Z,920.4
2016-11-18T03:18:24.971Z,920.43
2016-11-18T03:19:38.486Z,920.41
2016-11-18T03:20:52.098Z,920.38
2016-11-18T03:22:05.650Z,920.37
2016-11-18T03:23:18.711Z,920.32
2016-11-18T03:24:31.239Z,920.38
2016-11-18T03:25:44.227Z,920.42
2016-11-18T03:27:28.975Z,920.49
2016-11-18T03:28:42.491Z,920.55
2016-11-18T03:29:55.479Z,920.59
2016-11-18T03:31:09.043Z,920.6
2016-11-18T03:32:22.819Z,920.55
2016-11-18T03:33:36.345Z,920.52
2016-11-18T03:34:49.864Z,920.53
2016-11-18T03:36:03.426Z,920.51
2016-11-18T03:37:16.413Z,920.47
2016-11-18T03:38:29.370Z,920.46
2016-11-18T03:40:13.526Z,920.42
2016-11-18T03:41:58.116Z,920.42
2016-11-18T03:43:11.103Z,920.37
2016-11-18T03:44:24.151Z,920.36
2016-11-18T03:45:37.192Z,920.4
2016-11-18T03:46:49.727Z,920.39
2016-11-18T03:48:02.796Z,920.43
2016-11-18T03:49:15.343Z,920.39
2016-11-18T03:50:28.906Z,920.34
2016-11-18T03:51:41.946Z,920.33
2016-11-18T03:52:55.457Z,920.35
2016-11-18T03:54:09.051Z,920.33
2016-11-18T03:55:22.542Z,920.35
2016-11-18T03:56:36.064Z,920.32
2016-11-18T03:57:49.610Z,920.35
2016-11-18T03:59:02.629Z,920.28
2016-11-18T04:00:15.615Z,920.21
2016-11-18T04:01:29.134Z,920.2
2016-11-18T04:02:42.638Z,920.17
2016-11-18T04:03:55.710Z,920.13
2016-11-18T04:05:09.267Z,920.12
2016-11-18T04:06:22.860Z,920.11
2016-11-18T04:07:36.399Z,920.09
2016-11-18T04:08:48.831Z,920.1
2016-11-18T04:10:01.810Z,920.02
2016-11-18T04:11:14.845Z,919.99
2016-11-18T04:12:59.468Z,919.99
2016-11-18T04:14:13.083Z,919.97
2016-11-18T04:15:26.046Z,919.97
2016-11-18T04:16:39.542Z,919.93
2016-11-18T04:17:52.041Z,919.94
2016-11-18T04:19:05.032Z,919.91
2016-11-18T04:20:18.107Z,919.91
2016-11-18T04:21:31.133Z,919.94
2016-11-18T04:22:44.075Z,919.89
2016-11-18T04:23:57.159Z,919.87
2016-11-18T04:25:10.647Z,919.88
2016-11-18T04:26:23.660Z,919.86
2016-11-18T04:27:36.686Z,919.82
2016-11-18T04:28:49.708Z,919.83
2016-11-18T04:30:01.737Z,919.81
2016-11-18T04:31:15.328Z,919.79
2016-11-18T04:32:28.933Z,919.81
2016-11-18T04:33:42.536Z,919.79
2016-11-18T04:34:55.598Z,919.78
2016-11-18T04:36:09.080Z,919.74
2016-11-18T04:37:22.658Z,919.76
2016-11-18T04:38:35.638Z,919.77
2016-11-18T04:39:49.288Z,919.75
2016-11-18T04:41:01.766Z,919.72
2016-11-18T04:42:14.194Z,919.71
2016-11-18T04:43:27.231Z,919.7
2016-11-18T04:44:40.260Z,919.69
2016-11-18T04:45:52.748Z,919.69
2016-11-18T04:47:05.779Z,919.64
2016-11-18T04:48:18.798Z,919.63
2016-11-18T04:49:32.275Z,919.67
2016-11-18T04:50:44.762Z,919.66
2016-11-18T04:51:57.867Z,919.68
2016-11-18T04:53:10.840Z,919.68
2016-11-18T04:54:24.476Z,919.64
2016-11-18T04:55:36.961Z,919.67
2016-11-18T04:56:49.431Z,919.65
2016-11-18T04:58:02.989Z,919.65
2016-11-18T04:59:16.528Z,919.61
2016-11-18T05:00:29.533Z,919.56
2016-11-18T05:01:42.538Z,919.56
2016-11-18T05:02:56.087Z,919.57
2016-11-18T05:04:09.151Z,919.57
2016-11-18T05:05:22.731Z,919.6
2016-11-18T05:06:36.316Z,919.59
2016-11-18T05:07:49.863Z,919.61
2016-11-18T05:09:02.939Z,919.62
2016-11-18T05:10:16.514Z,919.66
2016-11-18T05:11:30.057Z,919.65
2016-11-18T05:12:43.525Z,919.67
2016-11-18T05:13:56.623Z,919.75
2016-11-18T05:15:10.151Z,919.71
2016-11-18T05:16:23.143Z,919.69
2016-11-18T05:17:36.173Z,919.69
2016-11-18T05:18:49.742Z,919.66
2016-11-18T05:20:02.241Z,919.59
2016-11-18T05:21:15.839Z,919.55
2016-11-18T05:22:29.384Z,919.5
2016-11-18T05:23:42.992Z,919.49
2016-11-18T05:24:56.523Z,919.55
2016-11-18T05:26:10.155Z,919.47
2016-11-18T05:27:22.691Z,919.42
2016-11-18T05:28:35.203Z,919.44
2016-11-18T05:29:48.814Z,919.43
2016-11-18T05:31:01.316Z,919.39
2016-11-18T05:32:14.848Z,919.42
2016-11-18T05:33:28.434Z,919.39
2016-11-18T05:34:41.494Z,919.37
2016-11-18T05:35:55.122Z,919.39
2016-11-18T05:37:08.747Z,919.41
2016-11-18T05:38:21.778Z,919.4
2016-11-18T05:39:34.785Z,919.38
2016-11-18T05:40:48.325Z,919.37
2016-11-18T05:42:01.355Z,919.34
2016-11-18T05:43:14.960Z,919.41
2016-11-18T05:44:28.571Z,919.41
2016-11-18T05:45:42.189Z,919.4
2016-11-18T05:46:55.800Z,919.41
2016-11-18T05:48:08.898Z,919.43
2016-11-18T05:49:21.998Z,919.4
2016-11-18T05:50:35.590Z,919.4
2016-11-18T05:51:48.630Z,919.38
2016-11-18T05:53:02.229Z,919.32
2016-11-18T05:54:15.739Z,919.35
2016-11-18T05:55:29.296Z,919.36
2016-11-18T05:56:42.475Z,919.31
2016-11-18T05:57:54.996Z,919.28
2016-11-18T05:59:08.581Z,919.27
2016-11-18T06:00:22.191Z,919.29
2016-11-18T06:01:35.240Z,919.31
2016-11-18T06:02:48.841Z,919.3
2016-11-18T06:04:01.833Z,919.3
2016-11-18T06:05:14.835Z,919.34
2016-11-18T06:06:28.360Z,919.32
2016-11-18T06:07:40.849Z,919.29
2016-11-18T06:08:53.887Z,919.33
2016-11-18T06:10:06.887Z,919.33
2016-11-18T06:11:19.399Z,919.32
2016-11-18T06:12:32.395Z,919.35
2016-11-18T06:13:44.375Z,919.37
2016-11-18T06:14:57.941Z,919.38
2016-11-18T06:16:10.425Z,919.39
2016-11-18T06:17:24.030Z,919.43
2016-11-18T06:18:37.040Z,919.43
2016-11-18T06:19:50.092Z,919.45
2016-11-18T06:21:03.123Z,919.44
2016-11-18T06:22:15.607Z,919.42
2016-11-18T06:23:29.190Z,919.42
2016-11-18T06:24:41.108Z,919.43
2016-11-18T06:25:54.645Z,919.41
2016-11-18T06:27:39.257Z,919.45
2016-11-18T06:28:52.803Z,919.47
2016-11-18T06:30:05.297Z,919.45
2016-11-18T06:31:18.325Z,919.5
2016-11-18T06:32:31.306Z,919.51
2016-11-18T06:33:44.353Z,919.52
2016-11-18T06:34:57.359Z,919.58
2016-11-18T06:36:10.376Z,919.54
2016-11-18T06:37:24.002Z,919.59
2016-11-18T06:38:37.024Z,919.55
2016-11-18T06:39:50.048Z,919.59
2016-11-18T06:41:03.086Z,919.58
2016-11-18T06:42:16.661Z,919.62
2016-11-18T06:43:29.713Z,919.64
2016-11-18T06:44:41.123Z,919.71
2016-11-18T06:45:54.722Z,919.79
2016-11-18T06:47:08.276Z,919.67
2016-11-18T06:48:21.802Z,919.76
2016-11-18T06:49:34.749Z,919.82
2016-11-18T06:50:47.759Z,919.76
2016-11-18T06:52:00.768Z,919.82
2016-11-18T06:53:13.784Z,919.88
2016-11-18T06:54:26.769Z,919.97
2016-11-18T06:55:39.783Z,920.03
2016-11-18T06:56:52.843Z,920.02
2016-11-18T06:58:05.862Z,920.05
2016-11-18T06:59:19.431Z,920.07
2016-11-18T07:00:32.435Z,920.01
2016-11-18T07:01:44.935Z,919.99
2016-11-18T07:02:58.472Z,919.98
2016-11-18T07:04:11.558Z,919.94
2016-11-18T07:05:25.090Z,919.89
2016-11-18T07:06:38.692Z,919.89
2016-11-18T07:07:51.702Z,919.99
2016-11-18T07:09:04.662Z,920.03
2016-11-18T07:10:18.182Z,920.04
2016-11-18T07:11:31.705Z,920.06
2016-11-18T07:12:44.151Z,920.09
2016-11-18T07:13:57.738Z,920.2
2016-11-18T07:15:11.302Z,920.24
2016-11-18T07:16:24.311Z,920.25
2016-11-18T07:17:36.244Z,920.17
2016-11-18T07:18:49.751Z,920.18
2016-11-18T07:20:02.791Z,920.13
2016-11-18T07:21:16.380Z,920.21
2016-11-18T07:22:29.421Z,920.06
2016-11-18T07:23:41.941Z,920.11
2016-11-18T07:24:55.524Z,920.21
2016-11-18T07:26:09.021Z,920.33
2016-11-18T07:27:22.024Z,920.42
2016-11-18T07:28:35.580Z,920.44
2016-11-18T07:29:49.102Z,920.45
2016-11-18T07:31:33.776Z,920.52
2016-11-18T07:32:47.294Z,920.52
2016-11-18T07:34:00.249Z,920.6
2016-11-18T07:35:13.236Z,920.55
2016-11-18T07:36:26.778Z,920.46
2016-11-18T07:37:40.314Z,920.51
2016-11-18T07:38:53.369Z,920.53
2016-11-18T07:40:05.879Z,920.62
2016-11-18T07:41:18.889Z,920.56
2016-11-18T07:42:31.947Z,920.58
2016-11-18T07:43:45.508Z,920.46
2016-11-18T07:44:58.049Z,920.58
2016-11-18T07:46:11.013Z,920.34
2016-11-18T07:47:24.549Z,920.45
2016-11-18T07:48:37.616Z,920.54
2016-11-18T07:49:50.569Z,920.61
2016-11-18T07:51:04.091Z,920.56
2016-11-18T07:52:17.121Z,920.59
2016-11-18T07:53:30.726Z,920.63
2016-11-18T07:54:43.803Z,920.67
2016-11-18T07:55:56.854Z,920.65
2016-11-18T07:57:10.405Z,920.66
2016-11-18T07:58:23.435Z,920.69
2016-11-18T07:59:35.898Z,920.7
2016-11-18T08:00:49.474Z,920.71
2016-11-18T08:02:02.545Z,920.67
2016-11-18T08:03:15.606Z,920.69
2016-11-18T08:04:28.709Z,920.67
2016-11-18T08:05:41.716Z,920.7
2016-11-18T08:06:55.246Z,920.72
2016-11-18T08:08:08.760Z,920.75
2016-11-18T08:09:22.298Z,920.74
2016-11-18T08:10:34.798Z,920.8
2016-11-18T08:11:47.762Z,920.74
2016-11-18T08:13:01.357Z,920.82
2016-11-18T08:14:14.417Z,920.82
2016-11-18T08:15:27.510Z,920.8
2016-11-18T08:16:40.506Z,920.87
2016-11-18T08:17:54.063Z,920.91
2016-11-18T08:19:07.594Z,920.91
2016-11-18T08:20:21.288Z,920.92
2016-11-18T08:21:33.813Z,920.91
2016-11-18T08:22:46.329Z,920.86
2016-11-18T08:23:59.949Z,920.9
2016-11-18T08:25:13.502Z,920.86
2016-11-18T08:26:27.116Z,920.81
2016-11-18T08:27:40.091Z,920.9
2016-11-18T08:28:53.154Z,920.88
2016-11-18T08:30:06.745Z,920.85
2016-11-18T08:31:18.658Z,920.87
2016-11-18T08:32:31.670Z,920.92
2016-11-18T08:33:45.273Z,920.94
2016-11-18T08:34:58.330Z,920.95
2016-11-18T08:36:10.819Z,920.98
2016-11-18T08:37:22.748Z,921.02
2016-11-18T08:38:35.246Z,920.92
2016-11-18T08:39:47.767Z,921.01
2016-11-18T08:42:45.408Z,921.01
2016-11-18T08:43:58.376Z,921.06
2016-11-18T08:45:11.953Z,921.13
2016-11-18T08:46:25.518Z,921.17
2016-11-18T08:47:39.090Z,921.21
2016-11-18T08:48:52.087Z,921.19
2016-11-18T08:50:05.617Z,921.18
2016-11-18T08:51:18.645Z,921.18
2016-11-18T08:52:32.195Z,921.16
2016-11-18T08:53:44.650Z,921.17
2016-11-18T08:54:58.161Z,921.14
2016-11-18T08:56:11.725Z,921.21
2016-11-18T08:57:25.316Z,921.24
2016-11-18T08:58:38.849Z,921.21
2016-11-18T08:59:51.389Z,921.22
2016-11-18T09:01:04.428Z,921.26
2016-11-18T09:02:17.425Z,921.22
2016-11-18T09:03:30.984Z,921.26
2016-11-18T09:04:43.428Z,921.3
2016-11-18T09:05:55.878Z,921.33
2016-11-18T09:07:08.894Z,921.38
2016-11-18T09:08:20.875Z,921.38
2016-11-18T09:09:34.447Z,921.37
2016-11-18T09:10:47.452Z,921.4
2016-11-18T09:12:01.014Z,921.43
2016-11-18T09:13:14.058Z,921.4
2016-11-18T09:14:27.078Z,921.38
2016-11-18T09:15:40.073Z,921.47
2016-11-18T09:16:52.120Z,921.43
2016-11-18T09:18:05.122Z,921.5
2016-11-18T09:19:18.729Z,921.47
2016-11-18T09:20:32.344Z,921.53
2016-11-18T09:21:45.934Z,921.54
2016-11-18T09:22:59.047Z,921.55
2016-11-18T09:24:12.050Z,921.56
2016-11-18T09:25:25.561Z,921.54
2016-11-18T09:26:39.123Z,921.53
2016-11-18T09:27:52.650Z,921.49
2016-11-18T09:29:06.233Z,921.54
2016-11-18T09:30:19.397Z,921.59
2016-11-18T09:31:32.921Z,921.57
2016-11-18T09:32:46.465Z,921.6
2016-11-18T09:33:58.920Z,921.62
2016-11-18T09:35:12.524Z,921.68
2016-11-18T09:36:25.553Z,921.72
2016-11-18T09:39:21.668Z,921.77
2016-11-18T09:40:35.219Z,921.72
2016-11-18T09:41:48.221Z,921.77
2016-11-18T09:43:01.739Z,921.81
2016-11-18T09:44:15.356Z,921.82
2016-11-18T09:45:28.379Z,921.81
2016-11-18T09:46:41.981Z,921.87
2016-11-18T09:47:55.569Z,921.87
2016-11-18T09:49:09.084Z,921.86
2016-11-18T09:50:22.148Z,921.93
2016-11-18T09:51:34.712Z,921.95
2016-11-18T09:52:47.873Z,921.99
2016-11-18T09:54:32.581Z,922.03
2016-11-18T09:55:46.108Z,922.02
2016-11-18T09:56:59.204Z,922.01
2016-11-18T09:58:11.107Z,922.04
2016-11-18T09:59:24.712Z,922.05
2016-11-18T10:00:37.791Z,922.05
2016-11-18T10:01:50.795Z,922.11
2016-11-18T10:03:03.821Z,922.12
2016-11-18T10:04:16.794Z,922.1
2016-11-18T10:05:29.857Z,922.07
2016-11-18T10:06:42.369Z,922.05
2016-11-18T10:07:54.893Z,922.06
2016-11-18T10:09:07.361Z,922.05
2016-11-18T10:10:20.910Z,922.07
2016-11-18T10:11:33.379Z,922.14
2016-11-18T10:12:46.419Z,922.13
2016-11-18T10:13:59.475Z,922.11
2016-11-18T10:15:11.942Z,922.1
2016-11-18T10:16:24.975Z,922.11
2016-11-18T10:17:37.507Z,922.19
2016-11-18T10:18:51.079Z,922.18
2016-11-18T10:20:03.664Z,922.19
2016-11-18T10:21:15.610Z,922.25
2016-11-18T10:22:28.590Z,922.28
2016-11-18T10:23:41.063Z,922.24
2016-11-18T10:24:54.030Z,922.32
2016-11-18T10:26:06.541Z,922.33
2016-11-18T10:27:18.522Z,922.37
2016-11-18T10:28:31.016Z,922.37
2016-11-18T10:29:43.501Z,922.32
2016-11-18T10:30:57.113Z,922.35
2016-11-18T10:32:10.619Z,922.36
2016-11-18T10:33:23.672Z,922.41
2016-11-18T10:34:36.689Z,922.44
2016-11-18T10:35:49.709Z,922.39
2016-11-18T10:37:02.721Z,922.36
2016-11-18T10:38:15.178Z,922.26
2016-11-18T10:39:28.195Z,922.38
2016-11-18T10:40:40.710Z,922.38
2016-11-18T10:41:54.321Z,922.38
2016-11-18T10:43:07.382Z,922.43
2016-11-18T10:44:20.414Z,922.44
2016-11-18T10:45:32.867Z,922.38
2016-11-18T10:46:46.470Z,922.49
2016-11-18T10:47:58.909Z,922.54
2016-11-18T10:50:56.153Z,922.61
2016-11-18T10:52:09.201Z,922.73
2016-11-18T10:53:22.781Z,922.61
2016-11-18T10:54:35.315Z,922.74
2016-11-18T10:55:47.793Z,922.71
2016-11-18T10:57:00.336Z,922.7
2016-11-18T10:58:13.349Z,922.73
2016-11-18T10:59:26.365Z,922.74
2016-11-18T11:00:39.932Z,922.78
2016-11-18T11:01:52.452Z,922.75
2016-11-18T11:03:04.964Z,922.85
2016-11-18T11:04:16.925Z,922.89
2016-11-18T11:05:29.947Z,922.88
2016-11-18T11:06:43.544Z,922.91
2016-11-18T11:07:57.083Z,922.99
2016-11-18T11:09:10.167Z,922.99
2016-11-18T11:10:22.680Z,922.97
2016-11-18T11:11:34.623Z,923.07
2016-11-18T11:12:47.699Z,923.1
2016-11-18T11:14:00.754Z,923.08
2016-11-18T11:15:14.319Z,923.11
2016-11-18T11:16:27.328Z,923.02
2016-11-18T11:17:39.274Z,923.13
2016-11-18T11:18:52.293Z,923.18
2016-11-18T11:20:05.313Z,923.2
2016-11-18T11:21:17.797Z,923.16
2016-11-18T11:22:29.744Z,923.23
2016-11-18T11:23:42.852Z,923.26
2016-11-18T11:24:55.885Z,923.3
2016-11-18T11:26:07.874Z,923.27
2016-11-18T11:27:20.961Z,923.25
2016-11-18T11:28:33.539Z,923.3
2016-11-18T11:29:45.954Z,923.23
2016-11-18T11:30:57.897Z,923.27
2016-11-18T11:32:09.900Z,923.25
2016-11-18T11:33:54.031Z,923.38
2016-11-18T11:35:07.059Z,923.36
2016-11-18T11:36:19.582Z,923.35
2016-11-18T11:37:32.595Z,923.39
2016-11-18T11:38:45.694Z,923.38
2016-11-18T11:39:58.696Z,923.4
2016-11-18T11:41:11.208Z,923.45
2016-11-18T11:42:23.720Z,923.39
2016-11-18T11:43:36.768Z,923.35
2016-11-18T11:44:48.200Z,923.39
2016-11-18T11:46:00.662Z,923.37
2016-11-18T11:47:12.102Z,923.41
2016-11-18T11:48:25.088Z,923.48
2016-11-18T11:49:37.605Z,923.45
2016-11-18T11:50:50.659Z,923.46
2016-11-18T11:52:03.688Z,923.43
2016-11-18T11:53:47.774Z,923.52
2016-11-18T11:55:00.275Z,923.48
2016-11-18T11:56:12.768Z,923.53
2016-11-18T11:57:25.187Z,923.53
2016-11-18T11:58:38.188Z,923.57
2016-11-18T11:59:50.679Z,923.51
2016-11-18T12:01:03.693Z,923.59
2016-11-18T12:02:15.666Z,923.64
2016-11-18T12:03:28.690Z,923.56
2016-11-18T12:04:41.170Z,923.61
2016-11-18T12:05:53.599Z,923.58
2016-11-18T12:07:05.480Z,923.59
2016-11-18T12:08:17.435Z,923.6
2016-11-18T12:09:30.568Z,923.52
2016-11-18T12:10:44.120Z,923.5
2016-11-18T12:11:57.116Z,923.55
2016-11-18T12:13:10.705Z,923.58
2016-11-18T12:14:23.742Z,923.53
2016-11-18T12:15:36.278Z,923.59
2016-11-18T12:16:49.296Z,923.53
2016-11-18T12:18:02.751Z,923.49
2016-11-18T12:19:15.770Z,923.5
2016-11-18T12:20:28.291Z,923.53
2016-11-18T12:21:40.730Z,923.49
2016-11-18T12:22:53.738Z,923.45
2016-11-18T12:24:06.801Z,923.39
2016-11-18T12:25:20.327Z,923.49
2016-11-18T12:26:32.778Z,923.49
2016-11-18T12:28:16.899Z,923.47
2016-11-18T12:29:30.424Z,923.58
2016-11-18T12:30:42.372Z,923.52
2016-11-18T12:31:56.007Z,923.52
2016-11-18T12:33:07.957Z,923.55
2016-11-18T12:34:19.956Z,923.5
2016-11-18T12:35:33.002Z,923.5
2016-11-18T12:36:45.976Z,923.54
2016-11-18T12:37:58.550Z,923.58
2016-11-18T12:39:11.068Z,923.63
2016-11-18T12:40:24.610Z,923.6
2016-11-18T12:41:37.615Z,923.67
2016-11-18T12:42:50.597Z,923.59
2016-11-18T12:44:03.091Z,923.57
2016-11-18T12:45:14.991Z,923.62
2016-11-18T12:46:28.535Z,923.65
2016-11-18T12:47:41.021Z,923.64
2016-11-18T12:48:52.983Z,923.69
2016-11-18T12:50:04.451Z,923.67
2016-11-18T12:51:16.920Z,923.74
2016-11-18T12:52:30.409Z,923.62
2016-11-18T12:53:43.005Z,923.65
2016-11-18T12:54:55.992Z,923.63
2016-11-18T12:56:08.994Z,923.61
2016-11-18T12:57:21.987Z,923.62
2016-11-18T12:58:33.953Z,923.64
2016-11-18T12:59:47.447Z,923.67
2016-11-18T13:01:00.453Z,923.74
2016-11-18T13:02:13.507Z,923.74
2016-11-18T13:03:27.007Z,923.71
2016-11-18T13:04:40.533Z,923.75
2016-11-18T13:05:53.050Z,923.77
2016-11-18T13:07:06.038Z,923.77
2016-11-18T13:08:18.477Z,923.79
2016-11-18T13:09:32.048Z,923.82
2016-11-18T13:10:44.604Z,923.74
2016-11-18T13:11:57.643Z,923.77
2016-11-18T13:13:10.620Z,923.73
2016-11-18T13:14:23.135Z,923.76
2016-11-18T13:15:36.716Z,923.72
2016-11-18T13:16:49.697Z,923.73
2016-11-18T13:18:02.675Z,923.72
2016-11-18T13:19:15.233Z,923.75
2016-11-18T13:20:28.797Z,923.8
2016-11-18T13:21:41.798Z,923.79
2016-11-18T13:22:53.742Z,923.82
2016-11-18T13:24:06.801Z,923.83
2016-11-18T13:25:19.309Z,923.85
2016-11-18T13:26:31.346Z,923.89
2016-11-18T13:27:44.971Z,923.91
2016-11-18T13:28:57.972Z,923.91
2016-11-18T13:30:10.985Z,923.89
2016-11-18T13:31:23.996Z,923.88
2016-11-18T13:32:35.952Z,923.88
2016-11-18T13:33:48.984Z,923.83
2016-11-18T13:35:01.984Z,923.95
2016-11-18T13:36:14.462Z,923.94
2016-11-18T13:37:26.930Z,923.91
2016-11-18T13:38:40.069Z,923.94
2016-11-18T13:39:53.123Z,923.93
2016-11-18T13:41:06.183Z,923.96
2016-11-18T13:42:19.235Z,923.92
2016-11-18T13:43:32.269Z,923.96
2016-11-18T13:44:45.238Z,923.95
2016-11-18T13:45:57.744Z,923.95
2016-11-18T13:47:10.794Z,923.98
2016-11-18T13:48:23.249Z,923.9
2016-11-18T13:49:36.802Z,923.9
2016-11-18T13:50:49.303Z,923.92
2016-11-18T13:52:02.325Z,923.88
2016-11-18T13:53:14.813Z,923.87
2016-11-18T13:54:27.828Z,923.88
2016-11-18T13:55:41.374Z,923.91
2016-11-18T13:56:54.360Z,923.95
2016-11-18T13:58:06.351Z,923.96
2016-11-18T13:59:19.376Z,923.98
2016-11-18T14:00:31.301Z,923.99
2016-11-18T14:01:44.866Z,924.03
2016-11-18T14:02:57.832Z,924.01
2016-11-18T14:04:09.805Z,923.95
2016-11-18T14:05:22.320Z,923.95
2016-11-18T14:06:33.243Z,924
2016-11-18T14:07:46.314Z,923.96
2016-11-18T14:08:59.387Z,923.89
2016-11-18T14:10:12.381Z,923.91
2016-11-18T14:11:26.033Z,923.92
2016-11-18T14:12:38.561Z,923.83
2016-11-18T14:13:50.501Z,923.84
2016-11-18T14:15:03.514Z,923.92
2016-11-18T14:16:16.011Z,923.84
2016-11-18T14:17:29.026Z,923.89
2016-11-18T14:18:40.449Z,923.87
2016-11-18T14:19:53.929Z,923.88
2016-11-18T14:21:06.920Z,923.9
2016-11-18T14:22:19.398Z,923.79
2016-11-18T14:23:32.419Z,923.8
2016-11-18T14:24:45.320Z,923.81
2016-11-18T14:25:58.887Z,923.8
2016-11-18T14:27:12.486Z,923.75
2016-11-18T14:28:26.119Z,923.71
2016-11-18T14:29:39.175Z,923.75
2016-11-18T14:30:52.254Z,923.77
2016-11-18T14:32:05.244Z,923.71
2016-11-18T14:33:18.282Z,923.67
2016-11-18T14:34:31.347Z,923.71
2016-11-18T14:35:44.893Z,923.76
2016-11-18T14:36:57.391Z,923.7
2016-11-18T14:38:10.902Z,923.72
2016-11-18T14:39:24.400Z,923.78
2016-11-18T14:40:36.905Z,923.74
2016-11-18T14:41:50.405Z,923.72
2016-11-18T14:43:02.846Z,923.74
2016-11-18T14:44:15.877Z,923.73
2016-11-18T14:45:28.393Z,923.71
2016-11-18T14:46:41.363Z,923.64
2016-11-18T14:47:54.369Z,923.59
2016-11-18T14:49:07.352Z,923.62
2016-11-18T14:50:20.448Z,923.55
2016-11-18T14:51:32.994Z,923.55
2016-11-18T14:52:45.968Z,923.51
2016-11-18T14:53:58.417Z,923.51
2016-11-18T14:55:10.917Z,923.52
2016-11-18T14:56:22.887Z,923.56
2016-11-18T14:57:35.919Z,923.6
2016-11-18T14:58:48.972Z,923.54
2016-11-18T15:00:02.125Z,923.51
2016-11-18T15:01:14.639Z,923.51
2016-11-18T15:02:27.665Z,923.52
2016-11-18T15:03:40.122Z,923.49
2016-11-18T15:04:53.643Z,923.48
2016-11-18T15:06:06.659Z,923.52
2016-11-18T15:07:19.672Z,923.55
2016-11-18T15:08:32.142Z,923.53
2016-11-18T15:09:45.224Z,923.52
2016-11-18T15:10:58.246Z,923.46
2016-11-18T15:12:11.226Z,923.46
2016-11-18T15:13:24.301Z,923.48
2016-11-18T15:14:37.308Z,923.39
2016-11-18T15:15:49.201Z,923.43
2016-11-18T15:17:02.773Z,923.4
2016-11-18T15:18:14.777Z,923.45
2016-11-18T15:19:27.797Z,923.42
2016-11-18T15:20:39.722Z,923.39
2016-11-18T15:21:52.824Z,923.36
2016-11-18T15:23:37.486Z,923.32
2016-11-18T15:24:50.454Z,923.26